createdAt,value
2022-11-07T00:01:19.544Z,11.28
2022-11-07T00:04:22.369Z,11.31
2022-11-07T00:07:25.025Z,11.03
2022-11-07T00:10:27.967Z,11.03
2022-11-07T00:13:31.336Z,11.15
2022-11-07T00:16:34.213Z,11.15
2022-11-07T00:19:36.828Z,11.17
2022-11-07T00:22:39.719Z,11.23
2022-11-07T00:25:42.663Z,11.20
2022-11-07T00:28:46.283Z,11.15
2022-11-07T00:31:49.587Z,11.14
2022-11-07T00:34:52.579Z,11.22
2022-11-07T00:37:55.951Z,11.12
2022-11-07T00:41:04.281Z,11.11
2022-11-07T00:44:07.181Z,11.09
2022-11-07T00:47:10.013Z,11.18
2022-11-07T00:50:12.671Z,11.27
2022-11-07T00:53:16.015Z,11.27
2022-11-07T00:56:22.310Z,11.21
2022-11-07T00:59:25.251Z,11.25
2022-11-07T01:02:27.915Z,11.16
2022-11-07T01:05:30.892Z,11.31
2022-11-07T01:08:33.550Z,11.21
2022-11-07T01:11:38.826Z,11.29
2022-11-07T01:14:41.746Z,11.19
2022-11-07T01:17:44.955Z,11.32
2022-11-07T01:20:48.022Z,11.35
2022-11-07T01:23:50.976Z,11.19
2022-11-07T01:26:53.638Z,11.22
2022-11-07T01:29:56.700Z,11.15
2022-11-07T01:32:59.427Z,11.05
2022-11-07T01:36:06.164Z,11.14
2022-11-07T01:39:12.103Z,10.94
2022-11-07T01:42:15.017Z,11.07
2022-11-07T01:45:24.628Z,10.81
2022-11-07T01:48:28.912Z,10.58
2022-11-07T01:51:37.121Z,10.29
2022-11-07T01:55:21.401Z,10.34
2022-11-07T01:58:24.080Z,10.35
2022-11-07T02:01:27.377Z,10.30
2022-11-07T02:04:31.604Z,10.26
2022-11-07T02:07:34.363Z,10.26
2022-11-07T02:10:39.692Z,10.31
2022-11-07T02:13:42.617Z,10.32
2022-11-07T02:16:46.575Z,10.28
2022-11-07T02:19:52.032Z,10.20
2022-11-07T02:23:01.364Z,10.18
2022-11-07T02:26:04.043Z,10.23
2022-11-07T02:29:10.364Z,10.16
2022-11-07T02:32:13.291Z,10.15
2022-11-07T02:35:42.742Z,10.15
2022-11-07T02:38:48.974Z,10.19
2022-11-07T02:41:53.472Z,10.24
2022-11-07T02:44:56.096Z,10.31
2022-11-07T02:47:59.084Z,10.41
2022-11-07T02:51:01.668Z,10.37
2022-11-07T02:54:04.910Z,10.36
2022-11-07T02:57:07.456Z,10.25
2022-11-07T03:00:13.220Z,10.15
2022-11-07T03:03:16.185Z,10.13
2022-11-07T03:06:28.333Z,10.11
2022-11-07T03:09:30.932Z,10.07
2022-11-07T03:12:33.779Z,10.08
2022-11-07T03:15:36.426Z,10.11
2022-11-07T03:18:39.619Z,10.12
2022-11-07T03:21:42.192Z,10.11
2022-11-07T03:24:45.277Z,10.10
2022-11-07T03:27:49.012Z,10.10
2022-11-07T03:30:52.471Z,10.12
2022-11-07T03:33:54.996Z,10.12
2022-11-07T03:36:57.855Z,10.12
2022-11-07T03:40:00.429Z,10.12
2022-11-07T03:43:03.562Z,10.06
2022-11-07T03:46:06.247Z,10.03
2022-11-07T03:49:09.356Z,10.04
2022-11-07T03:52:12.903Z,9.99
2022-11-07T03:55:18.447Z,10.02
2022-11-07T03:58:21.238Z,9.95
2022-11-07T04:01:24.267Z,9.95
2022-11-07T04:04:28.656Z,9.92
2022-11-07T04:07:31.438Z,9.91
2022-11-07T04:10:34.247Z,9.84
2022-11-07T04:13:55.536Z,9.78
2022-11-07T04:17:17.333Z,9.76
2022-11-07T04:20:19.967Z,9.72
2022-11-07T04:23:22.891Z,9.66
2022-11-07T04:26:43.911Z,9.66
2022-11-07T04:29:46.757Z,9.66
2022-11-07T04:32:57.107Z,9.64
2022-11-07T04:35:59.980Z,9.63
2022-11-07T04:39:02.508Z,9.55
2022-11-07T04:42:07.172Z,9.47
2022-11-07T04:45:10.845Z,9.49
2022-11-07T04:48:14.998Z,9.46
2022-11-07T04:51:21.506Z,9.36
2022-11-07T04:54:25.481Z,9.33
2022-11-07T04:57:29.215Z,9.39
2022-11-07T05:00:32.124Z,9.36
2022-11-07T05:03:40.371Z,9.43
2022-11-07T05:06:44.603Z,9.38
2022-11-07T05:09:47.330Z,9.31
2022-11-07T05:12:50.891Z,9.46
2022-11-07T05:15:53.654Z,9.39
2022-11-07T05:18:57.772Z,9.43
2022-11-07T05:22:19.130Z,9.39
2022-11-07T05:25:22.044Z,9.36
2022-11-07T05:28:38.234Z,9.31
2022-11-07T05:31:41.554Z,9.27
2022-11-07T05:34:45.304Z,9.20
2022-11-07T05:37:51.615Z,9.15
2022-11-07T05:40:54.225Z,9.15
2022-11-07T05:43:57.471Z,9.30
2022-11-07T05:47:00.756Z,9.34
2022-11-07T05:50:03.724Z,9.34
2022-11-07T05:53:06.990Z,9.24
2022-11-07T05:56:09.908Z,8.92
2022-11-07T05:59:13.145Z,8.69
2022-11-07T06:02:16.344Z,8.66
2022-11-07T06:05:23.131Z,8.67
2022-11-07T06:08:27.145Z,8.60
2022-11-07T06:11:32.814Z,8.60
2022-11-07T06:14:35.440Z,8.51
2022-11-07T06:17:38.918Z,8.58
2022-11-07T06:20:41.655Z,8.54
2022-11-07T06:23:44.819Z,8.49
2022-11-07T06:26:47.342Z,8.51
2022-11-07T06:29:50.231Z,8.57
2022-11-07T06:32:52.836Z,8.56
2022-11-07T06:35:55.927Z,8.59
2022-11-07T06:38:58.472Z,8.64
2022-11-07T06:42:03.434Z,8.75
2022-11-07T06:45:06.635Z,8.83
2022-11-07T06:48:10.200Z,8.94
2022-11-07T06:51:12.911Z,8.88
2022-11-07T06:54:15.863Z,9.09
2022-11-07T06:57:20.752Z,9.22
2022-11-07T07:00:23.530Z,9.41
2022-11-07T07:03:26.365Z,9.55
2022-11-07T07:06:29.280Z,9.63
2022-11-07T07:09:31.976Z,9.72
2022-11-07T07:12:35.046Z,9.77
2022-11-07T07:15:50.452Z,9.86
2022-11-07T07:18:54.192Z,9.93
2022-11-07T07:21:56.807Z,9.97
2022-11-07T07:24:59.950Z,10.03
2022-11-07T07:28:03.091Z,10.04
2022-11-07T07:31:19.067Z,10.03
2022-11-07T07:34:21.605Z,10.08
2022-11-07T07:37:24.556Z,10.21
2022-11-07T07:40:28.641Z,10.21
2022-11-07T07:43:31.987Z,10.26
2022-11-07T07:46:34.531Z,10.33
2022-11-07T07:49:37.566Z,10.42
2022-11-07T07:52:40.161Z,10.61
2022-11-07T07:55:44.032Z,10.73
2022-11-07T07:58:46.834Z,10.75
2022-11-07T08:01:55.163Z,10.86
2022-11-07T08:05:01.472Z,10.84
2022-11-07T08:08:05.406Z,10.80
2022-11-07T08:11:10.310Z,10.82
2022-11-07T08:14:13.220Z,10.81
2022-11-07T08:17:16.141Z,10.91
2022-11-07T08:20:28.076Z,10.87
2022-11-07T08:23:31.473Z,10.90
2022-11-07T08:26:34.458Z,10.84
2022-11-07T08:29:37.409Z,10.83
2022-11-07T08:32:39.999Z,10.83
2022-11-07T08:35:43.016Z,10.88
2022-11-07T08:38:45.777Z,10.92
2022-11-07T08:41:48.664Z,10.92
2022-11-07T08:44:51.300Z,10.85
2022-11-07T08:47:58.915Z,10.92
2022-11-07T08:51:04.663Z,10.95
2022-11-07T08:54:07.560Z,10.97
2022-11-07T08:57:10.770Z,10.98
2022-11-07T09:00:14.194Z,11.01
2022-11-07T09:03:44.420Z,10.98
2022-11-07T09:06:39.647Z,10.87
2022-11-07T09:09:42.247Z,10.75
2022-11-07T09:12:49.930Z,10.71
2022-11-07T09:15:57.366Z,10.66
2022-11-07T09:19:00.230Z,10.72
2022-11-07T09:22:02.973Z,10.75
2022-11-07T09:25:06.463Z,10.72
2022-11-07T09:28:09.248Z,10.69
2022-11-07T09:31:12.427Z,10.74
2022-11-07T09:34:15.068Z,10.75
2022-11-07T09:37:18.316Z,10.70
2022-11-07T09:40:28.878Z,10.59
2022-11-07T09:43:53.191Z,10.63
2022-11-07T09:47:06.773Z,10.64
2022-11-07T09:50:31.986Z,10.66
2022-11-07T09:53:42.881Z,10.74
2022-11-07T09:56:46.997Z,10.79
2022-11-07T09:59:55.403Z,10.76
2022-11-07T10:03:00.914Z,10.75
2022-11-07T10:06:25.107Z,10.68
2022-11-07T10:09:39.748Z,10.68
2022-11-07T10:13:28.401Z,10.72
2022-11-07T10:16:49.848Z,10.80
2022-11-07T10:20:07.573Z,10.81
2022-11-07T10:23:29.421Z,10.92
2022-11-07T10:26:32.721Z,10.94
2022-11-07T10:29:48.128Z,10.89
2022-11-07T10:33:05.480Z,10.93
2022-11-07T10:36:25.674Z,11.02
2022-11-07T10:39:32.114Z,11.11
2022-11-07T10:42:34.794Z,11.11
2022-11-07T10:45:39.757Z,11.14
2022-11-07T10:48:57.175Z,11.31
2022-11-07T10:52:17.012Z,11.45
2022-11-07T10:55:20.021Z,11.59
2022-11-07T10:58:31.237Z,11.61
2022-11-07T11:01:34.034Z,11.71
2022-11-07T11:04:38.568Z,11.86
2022-11-07T11:07:41.581Z,11.93
2022-11-07T11:10:44.805Z,12.18
2022-11-07T11:13:48.560Z,12.34
2022-11-07T11:16:56.653Z,12.85
2022-11-07T11:19:59.577Z,13.66
2022-11-07T11:23:06.357Z,15.47
2022-11-07T11:26:36.339Z,16.53
2022-11-07T11:29:58.172Z,16.96
2022-11-07T11:33:20.386Z,17.19
2022-11-07T11:36:28.735Z,16.63
2022-11-07T11:40:00.492Z,16.37
2022-11-07T11:43:23.078Z,18.01
2022-11-07T11:46:32.288Z,17.92
2022-11-07T11:49:59.482Z,18.18
2022-11-07T11:53:02.164Z,19.68
2022-11-07T11:56:08.055Z,17.63
2022-11-07T12:00:01.102Z,17.79
2022-11-07T12:03:34.372Z,16.90
2022-11-07T12:06:42.494Z,17.39
2022-11-07T12:09:47.399Z,17.18
2022-11-07T12:12:53.410Z,17.50
2022-11-07T12:16:11.505Z,17.57
2022-11-07T12:19:23.062Z,17.80
2022-11-07T12:22:26.841Z,16.55
2022-11-07T12:25:37.726Z,16.12
2022-11-07T12:28:44.497Z,16.28
2022-11-07T12:32:19.402Z,15.81
2022-11-07T12:35:28.293Z,16.16
2022-11-07T12:38:37.811Z,15.77
2022-11-07T12:41:52.375Z,15.82
2022-11-07T12:45:07.058Z,15.59
2022-11-07T12:48:28.075Z,15.44
2022-11-07T12:51:47.206Z,15.43
2022-11-07T12:55:02.480Z,16.28
2022-11-07T12:58:15.056Z,17.71
2022-11-07T13:01:26.668Z,18.28
2022-11-07T13:05:12.651Z,18.71
2022-11-07T13:08:35.082Z,17.53
2022-11-07T13:11:38.149Z,17.92
2022-11-07T13:14:42.632Z,18.49
2022-11-07T13:17:47.299Z,18.90
2022-11-07T13:21:00.134Z,18.61
2022-11-07T13:24:06.695Z,17.59
2022-11-07T13:27:32.379Z,17.24
2022-11-07T13:30:40.378Z,16.93
2022-11-07T13:33:42.984Z,16.22
2022-11-07T13:36:49.518Z,15.69
2022-11-07T13:39:58.689Z,15.48
2022-11-07T13:43:10.354Z,14.95
2022-11-07T13:46:31.672Z,14.52
2022-11-07T13:49:45.055Z,14.21
2022-11-07T13:53:07.220Z,13.77
2022-11-07T13:56:29.098Z,13.79
2022-11-07T13:59:44.837Z,13.50
2022-11-07T14:02:52.961Z,13.61
2022-11-07T14:05:56.716Z,13.37
2022-11-07T14:08:59.324Z,13.30
2022-11-07T14:12:03.769Z,13.39
2022-11-07T14:15:13.807Z,13.28
2022-11-07T14:18:18.980Z,13.28
2022-11-07T14:21:35.276Z,13.08
2022-11-07T14:24:38.330Z,12.93
2022-11-07T14:27:46.401Z,12.77
2022-11-07T14:30:51.688Z,12.88
2022-11-07T14:33:57.243Z,12.88
2022-11-07T14:37:05.823Z,12.71
2022-11-07T14:40:10.619Z,12.62
2022-11-07T14:43:20.867Z,12.59
2022-11-07T14:46:25.416Z,12.53
2022-11-07T14:49:33.276Z,12.51
2022-11-07T14:53:00.040Z,12.40
2022-11-07T14:56:08.722Z,12.42
2022-11-07T14:59:14.946Z,12.41
2022-11-07T15:02:27.439Z,12.35
2022-11-07T15:05:35.911Z,12.24
2022-11-07T15:08:39.238Z,12.11
2022-11-07T15:12:01.620Z,12.02
2022-11-07T15:15:13.113Z,11.88
2022-11-07T15:18:26.663Z,11.77
2022-11-07T15:21:35.716Z,11.63
2022-11-07T15:24:46.387Z,11.42
2022-11-07T15:27:49.325Z,11.28
2022-11-07T15:30:54.944Z,11.18
2022-11-07T15:34:00.791Z,11.02
2022-11-07T15:37:15.377Z,10.82
2022-11-07T15:40:20.636Z,10.60
2022-11-07T15:43:23.850Z,10.54
2022-11-07T15:46:35.661Z,10.57
2022-11-07T15:49:38.233Z,10.52
2022-11-07T15:52:41.201Z,10.48
2022-11-07T15:55:45.055Z,10.43
2022-11-07T15:58:48.360Z,10.15
2022-11-07T16:01:51.114Z,10.26
2022-11-07T16:04:54.378Z,10.18
2022-11-07T16:07:58.455Z,10.10
2022-11-07T16:11:02.514Z,10.03
2022-11-07T16:14:34.483Z,10.14
2022-11-07T16:17:29.848Z,10.16
2022-11-07T16:20:33.779Z,10.09
2022-11-07T16:23:37.794Z,9.90
2022-11-07T16:26:40.507Z,9.77
2022-11-07T16:29:44.500Z,9.76
2022-11-07T16:32:47.619Z,9.71
2022-11-07T16:35:53.429Z,9.74
2022-11-07T16:38:56.383Z,9.54
2022-11-07T16:41:59.240Z,9.49
2022-11-07T16:45:02.570Z,9.10
2022-11-07T16:48:06.067Z,9.21
2022-11-07T16:51:15.022Z,9.13
2022-11-07T16:54:18.598Z,9.13
2022-11-07T16:57:25.101Z,9.01
2022-11-07T17:00:29.124Z,9.04
2022-11-07T17:03:33.606Z,9.07
2022-11-07T17:06:37.439Z,9.14
2022-11-07T17:09:40.573Z,9.00
2022-11-07T17:12:44.184Z,8.90
2022-11-07T17:15:48.097Z,8.67
2022-11-07T17:18:52.057Z,8.76
2022-11-07T17:21:55.590Z,8.70
2022-11-07T17:24:59.096Z,8.71
2022-11-07T17:28:04.153Z,8.44
2022-11-07T17:31:07.962Z,8.45
2022-11-07T17:34:11.077Z,8.49
2022-11-07T17:37:18.449Z,8.45
2022-11-07T17:40:29.794Z,8.47
2022-11-07T17:43:33.091Z,8.39
2022-11-07T17:46:37.249Z,8.30
2022-11-07T17:49:40.388Z,8.05
2022-11-07T17:52:43.369Z,8.12
2022-11-07T17:55:46.662Z,8.19
2022-11-07T17:58:54.050Z,8.20
2022-11-07T18:01:57.485Z,8.02
2022-11-07T18:05:00.825Z,7.86
2022-11-07T18:08:04.120Z,7.91
2022-11-07T18:11:07.350Z,7.97
2022-11-07T18:14:12.317Z,8.02
2022-11-07T18:17:15.703Z,7.91
2022-11-07T18:20:18.340Z,7.74
2022-11-07T18:23:21.341Z,7.84
2022-11-07T18:26:31.238Z,7.74
2022-11-07T18:29:36.273Z,7.76
2022-11-07T18:32:39.795Z,7.67
2022-11-07T18:35:44.455Z,7.64
2022-11-07T18:38:48.065Z,7.65
2022-11-07T18:41:52.446Z,7.72
2022-11-07T18:44:55.491Z,7.58
2022-11-07T18:47:59.381Z,7.50
2022-11-07T18:51:03.456Z,7.56
2022-11-07T18:54:07.484Z,7.52
2022-11-07T18:57:10.448Z,7.48
2022-11-07T19:00:15.557Z,7.29
2022-11-07T19:03:19.609Z,7.04
2022-11-07T19:06:25.533Z,6.91
2022-11-07T19:09:32.212Z,7.13
2022-11-07T19:12:36.276Z,7.07
2022-11-07T19:15:40.109Z,7.19
2022-11-07T19:18:49.192Z,7.36
2022-11-07T19:21:52.962Z,7.19
2022-11-07T19:24:56.737Z,7.07
2022-11-07T19:28:00.239Z,6.98
2022-11-07T19:31:08.644Z,7.09
2022-11-07T19:34:11.320Z,7.04
2022-11-07T19:37:14.516Z,6.98
2022-11-07T19:40:17.715Z,7.00
2022-11-07T19:43:21.243Z,7.01
2022-11-07T19:46:25.667Z,6.95
2022-11-07T19:49:29.183Z,6.93
2022-11-07T19:52:34.102Z,6.92
2022-11-07T19:55:38.364Z,6.95
2022-11-07T19:58:43.208Z,6.77
2022-11-07T20:02:04.142Z,6.78
2022-11-07T20:05:09.995Z,6.78
2022-11-07T20:08:13.158Z,6.85
2022-11-07T20:11:23.473Z,6.85
2022-11-07T20:14:27.645Z,6.65
2022-11-07T20:17:31.290Z,6.71
2022-11-07T20:20:34.027Z,6.86
2022-11-07T20:23:37.303Z,6.73
2022-11-07T20:26:40.925Z,6.78
2022-11-07T20:29:44.389Z,6.75
2022-11-07T20:32:47.823Z,6.93
2022-11-07T20:36:03.121Z,7.00
2022-11-07T20:39:15.860Z,7.03
2022-11-07T20:42:19.427Z,7.12
2022-11-07T20:45:22.525Z,6.78
2022-11-07T20:48:26.007Z,6.58
2022-11-07T20:51:30.763Z,6.47
2022-11-07T20:54:36.303Z,6.53
2022-11-07T20:57:41.427Z,6.37
2022-11-07T21:00:47.437Z,6.47
2022-11-07T21:03:53.243Z,6.35
2022-11-07T21:06:56.816Z,6.31
2022-11-07T21:10:00.647Z,6.35
2022-11-07T21:13:05.652Z,6.45
2022-11-07T21:16:09.335Z,6.45
2022-11-07T21:19:16.717Z,6.50
2022-11-07T21:22:19.439Z,6.60
2022-11-07T21:25:24.044Z,6.41
2022-11-07T21:28:27.085Z,6.40
2022-11-07T21:31:31.511Z,6.34
2022-11-07T21:34:37.485Z,6.19
2022-11-07T21:37:40.679Z,6.31
2022-11-07T21:40:43.330Z,6.24
2022-11-07T21:43:46.790Z,6.35
2022-11-07T21:46:49.368Z,6.31
2022-11-07T21:49:52.275Z,6.29
2022-11-07T21:52:56.668Z,6.07
2022-11-07T21:56:00.540Z,6.19
2022-11-07T21:59:06.690Z,6.28
2022-11-07T22:02:12.779Z,6.25
2022-11-07T22:05:15.761Z,6.40
2022-11-07T22:08:23.427Z,6.36
2022-11-07T22:11:26.792Z,6.31
2022-11-07T22:14:29.460Z,6.24
2022-11-07T22:17:32.279Z,6.25
2022-11-07T22:20:34.886Z,6.22
2022-11-07T22:23:38.939Z,6.30
2022-11-07T22:26:41.679Z,6.30
2022-11-07T22:29:47.087Z,6.38
2022-11-07T22:32:51.799Z,6.29
2022-11-07T22:35:54.682Z,6.21
2022-11-07T22:38:58.398Z,6.13
2022-11-07T22:42:01.224Z,5.81
2022-11-07T22:45:04.045Z,5.86
2022-11-07T22:48:07.268Z,5.86
2022-11-07T22:51:35.003Z,5.86
2022-11-07T22:54:38.185Z,5.68
2022-11-07T22:57:41.067Z,5.66
2022-11-07T23:00:43.965Z,5.68
2022-11-07T23:03:47.496Z,5.66
2022-11-07T23:06:50.421Z,5.61
2022-11-07T23:09:57.974Z,5.75
2022-11-07T23:13:04.856Z,5.82
2022-11-07T23:16:18.114Z,5.93
2022-11-07T23:19:23.779Z,5.62
2022-11-07T23:22:32.070Z,5.54
2022-11-07T23:25:37.186Z,5.24
2022-11-07T23:28:40.791Z,5.28
2022-11-07T23:31:47.024Z,5.43
2022-11-07T23:34:50.508Z,5.38
2022-11-07T23:37:54.666Z,5.40
2022-11-07T23:41:01.598Z,5.52
2022-11-07T23:44:06.524Z,5.59
2022-11-07T23:47:30.483Z,5.75
2022-11-07T23:50:52.742Z,5.74
2022-11-07T23:54:14.733Z,5.55
2022-11-07T23:57:19.984Z,5.47
